sensor_id;sensor_type;location;lat;lon;timestamp;P1;durP1;ratioP1;P2;durP2;ratioP2
22764;SDS011;11549;50.852;3.816;2022-09-12T00:01:18;18.25;;;15.52;;
22764;SDS011;11549;50.852;3.816;2022-09-12T00:03:50;21.52;;;16.88;;
22764;SDS011;11549;50.852;3.816;2022-09-12T00:06:22;17.67;;;15.77;;
22764;SDS011;11549;50.852;3.816;2022-09-12T00:08:53;19.08;;;16.70;;
22764;SDS011;11549;50.852;3.816;2022-09-12T00:11:23;19.80;;;16.85;;
22764;SDS011;11549;50.852;3.816;2022-09-12T00:13:54;17.42;;;15.27;;
22764;SDS011;11549;50.852;3.816;2022-09-12T00:16:24;17.63;;;15.68;;
22764;SDS011;11549;50.852;3.816;2022-09-12T00:18:53;19.38;;;16.42;;
22764;SDS011;11549;50.852;3.816;2022-09-12T00:21:24;20.83;;;16.58;;
22764;SDS011;11549;50.852;3.816;2022-09-12T00:23:53;18.38;;;16.00;;
22764;SDS011;11549;50.852;3.816;2022-09-12T00:26:21;18.00;;;16.10;;
22764;SDS011;11549;50.852;3.816;2022-09-12T00:28:50;18.52;;;16.52;;
22764;SDS011;11549;50.852;3.816;2022-09-12T00:31:20;21.75;;;16.25;;
22764;SDS011;11549;50.852;3.816;2022-09-12T00:33:49;19.88;;;16.63;;
22764;SDS011;11549;50.852;3.816;2022-09-12T00:36:19;18.38;;;16.08;;
22764;SDS011;11549;50.852;3.816;2022-09-12T00:38:50;21.80;;;17.05;;
22764;SDS011;11549;50.852;3.816;2022-09-12T00:41:21;20.63;;;17.05;;
22764;SDS011;11549;50.852;3.816;2022-09-12T00:43:51;19.67;;;16.77;;
22764;SDS011;11549;50.852;3.816;2022-09-12T00:46:24;23.15;;;17.27;;
22764;SDS011;11549;50.852;3.816;2022-09-12T00:48:57;19.60;;;16.00;;
22764;SDS011;11549;50.852;3.816;2022-09-12T00:51:28;18.35;;;16.23;;
22764;SDS011;11549;50.852;3.816;2022-09-12T00:54:01;19.98;;;16.92;;
22764;SDS011;11549;50.852;3.816;2022-09-12T00:56:35;20.92;;;17.90;;
22764;SDS011;11549;50.852;3.816;2022-09-12T00:59:07;21.58;;;17.50;;
22764;SDS011;11549;50.852;3.816;2022-09-12T01:01:39;20.50;;;18.10;;
22764;SDS011;11549;50.852;3.816;2022-09-12T01:04:10;19.75;;;17.65;;
22764;SDS011;11549;50.852;3.816;2022-09-12T01:06:40;22.60;;;17.80;;
22764;SDS011;11549;50.852;3.816;2022-09-12T01:09:12;24.55;;;18.92;;
22764;SDS011;11549;50.852;3.816;2022-09-12T01:11:46;24.45;;;20.00;;
22764;SDS011;11549;50.852;3.816;2022-09-12T01:14:16;26.80;;;21.45;;
22764;SDS011;11549;50.852;3.816;2022-09-12T01:16:45;28.95;;;22.73;;
22764;SDS011;11549;50.852;3.816;2022-09-12T01:19:21;26.20;;;21.63;;
22764;SDS011;11549;50.852;3.816;2022-09-12T01:22:07;25.83;;;20.05;;
22764;SDS011;11549;50.852;3.816;2022-09-12T01:24:52;28.17;;;21.38;;
22764;SDS011;11549;50.852;3.816;2022-09-12T01:27:32;26.23;;;20.83;;
22764;SDS011;11549;50.852;3.816;2022-09-12T01:30:28;27.20;;;20.48;;
22764;SDS011;11549;50.852;3.816;2022-09-12T01:33:27;26.20;;;20.50;;
22764;SDS011;11549;50.852;3.816;2022-09-12T01:39:21;25.10;;;18.80;;
22764;SDS011;11549;50.852;3.816;2022-09-12T01:42:00;27.88;;;21.30;;
22764;SDS011;11549;50.852;3.816;2022-09-12T01:44:38;25.85;;;21.80;;
22764;SDS011;11549;50.852;3.816;2022-09-12T01:47:20;26.23;;;21.38;;
22764;SDS011;11549;50.852;3.816;2022-09-12T01:49:55;28.48;;;22.10;;
22764;SDS011;11549;50.852;3.816;2022-09-12T01:52:28;29.35;;;22.27;;
22764;SDS011;11549;50.852;3.816;2022-09-12T01:55:03;27.77;;;22.77;;
22764;SDS011;11549;50.852;3.816;2022-09-12T01:57:36;27.67;;;22.65;;
22764;SDS011;11549;50.852;3.816;2022-09-12T02:00:09;26.70;;;22.92;;
22764;SDS011;11549;50.852;3.816;2022-09-12T02:02:42;30.00;;;25.35;;
22764;SDS011;11549;50.852;3.816;2022-09-12T02:05:19;30.77;;;23.90;;
22764;SDS011;11549;50.852;3.816;2022-09-12T02:07:52;27.27;;;23.77;;
22764;SDS011;11549;50.852;3.816;2022-09-12T02:10:25;30.33;;;25.10;;
22764;SDS011;11549;50.852;3.816;2022-09-12T02:13:00;32.75;;;26.30;;
22764;SDS011;11549;50.852;3.816;2022-09-12T02:15:35;29.05;;;24.50;;
22764;SDS011;11549;50.852;3.816;2022-09-12T02:18:18;32.67;;;25.83;;
22764;SDS011;11549;50.852;3.816;2022-09-12T02:20:50;32.10;;;26.70;;
22764;SDS011;11549;50.852;3.816;2022-09-12T02:23:21;35.55;;;27.13;;
22764;SDS011;11549;50.852;3.816;2022-09-12T02:25:54;33.80;;;27.35;;
22764;SDS011;11549;50.852;3.816;2022-09-12T02:28:28;36.22;;;28.88;;
22764;SDS011;11549;50.852;3.816;2022-09-12T02:31:01;37.23;;;27.47;;
22764;SDS011;11549;50.852;3.816;2022-09-12T02:33:37;36.15;;;27.98;;
22764;SDS011;11549;50.852;3.816;2022-09-12T02:36:16;33.92;;;26.85;;
22764;SDS011;11549;50.852;3.816;2022-09-12T02:38:55;33.83;;;27.02;;
22764;SDS011;11549;50.852;3.816;2022-09-12T02:41:25;36.78;;;28.27;;
22764;SDS011;11549;50.852;3.816;2022-09-12T02:43:54;33.85;;;27.00;;
22764;SDS011;11549;50.852;3.816;2022-09-12T02:46:25;34.08;;;26.88;;
22764;SDS011;11549;50.852;3.816;2022-09-12T02:48:59;33.20;;;27.08;;
22764;SDS011;11549;50.852;3.816;2022-09-12T02:51:28;34.55;;;26.63;;
22764;SDS011;11549;50.852;3.816;2022-09-12T02:53:58;35.25;;;26.65;;
22764;SDS011;11549;50.852;3.816;2022-09-12T02:56:28;29.83;;;24.67;;
22764;SDS011;11549;50.852;3.816;2022-09-12T02:58:58;33.10;;;25.75;;
22764;SDS011;11549;50.852;3.816;2022-09-12T03:01:40;34.97;;;27.65;;
22764;SDS011;11549;50.852;3.816;2022-09-12T03:04:34;39.03;;;27.88;;
22764;SDS011;11549;50.852;3.816;2022-09-12T03:07:14;35.75;;;27.33;;
22764;SDS011;11549;50.852;3.816;2022-09-12T03:09:54;33.78;;;27.10;;
22764;SDS011;11549;50.852;3.816;2022-09-12T03:12:34;35.00;;;27.20;;
22764;SDS011;11549;50.852;3.816;2022-09-12T03:15:16;33.10;;;25.35;;
22764;SDS011;11549;50.852;3.816;2022-09-12T03:17:57;38.70;;;27.42;;
22764;SDS011;11549;50.852;3.816;2022-09-12T03:20:44;38.30;;;28.25;;
22764;SDS011;11549;50.852;3.816;2022-09-12T03:23:23;34.33;;;26.70;;
22764;SDS011;11549;50.852;3.816;2022-09-12T03:25:58;37.33;;;27.38;;
22764;SDS011;11549;50.852;3.816;2022-09-12T03:28:30;34.17;;;26.65;;
22764;SDS011;11549;50.852;3.816;2022-09-12T03:31:10;36.17;;;27.35;;
22764;SDS011;11549;50.852;3.816;2022-09-12T03:33:40;34.80;;;27.27;;
22764;SDS011;11549;50.852;3.816;2022-09-12T03:36:13;34.33;;;27.45;;
22764;SDS011;11549;50.852;3.816;2022-09-12T03:38:43;36.08;;;28.00;;
22764;SDS011;11549;50.852;3.816;2022-09-12T03:41:12;32.40;;;25.48;;
22764;SDS011;11549;50.852;3.816;2022-09-12T03:43:41;33.55;;;25.83;;
22764;SDS011;11549;50.852;3.816;2022-09-12T03:46:09;31.60;;;25.52;;
22764;SDS011;11549;50.852;3.816;2022-09-12T03:48:39;36.25;;;27.55;;
22764;SDS011;11549;50.852;3.816;2022-09-12T03:51:08;36.80;;;27.70;;
22764;SDS011;11549;50.852;3.816;2022-09-12T03:53:39;34.05;;;25.30;;
22764;SDS011;11549;50.852;3.816;2022-09-12T03:56:08;35.35;;;28.08;;
22764;SDS011;11549;50.852;3.816;2022-09-12T03:58:38;33.33;;;25.92;;
22764;SDS011;11549;50.852;3.816;2022-09-12T04:01:07;35.70;;;28.25;;
22764;SDS011;11549;50.852;3.816;2022-09-12T04:03:38;38.30;;;28.75;;
22764;SDS011;11549;50.852;3.816;2022-09-12T04:06:08;36.75;;;27.45;;
22764;SDS011;11549;50.852;3.816;2022-09-12T04:08:40;40.33;;;29.83;;
22764;SDS011;11549;50.852;3.816;2022-09-12T04:11:10;37.22;;;27.92;;
22764;SDS011;11549;50.852;3.816;2022-09-12T04:13:40;37.78;;;30.50;;
22764;SDS011;11549;50.852;3.816;2022-09-12T04:16:10;34.10;;;27.10;;
22764;SDS011;11549;50.852;3.816;2022-09-12T04:18:40;38.33;;;30.30;;
22764;SDS011;11549;50.852;3.816;2022-09-12T04:21:09;35.00;;;27.60;;
22764;SDS011;11549;50.852;3.816;2022-09-12T04:23:40;37.63;;;28.85;;
22764;SDS011;11549;50.852;3.816;2022-09-12T04:26:09;35.13;;;28.10;;
22764;SDS011;11549;50.852;3.816;2022-09-12T04:28:39;32.35;;;26.08;;
22764;SDS011;11549;50.852;3.816;2022-09-12T04:31:09;36.45;;;27.77;;
22764;SDS011;11549;50.852;3.816;2022-09-12T04:33:43;31.75;;;25.08;;
22764;SDS011;11549;50.852;3.816;2022-09-12T04:36:13;30.58;;;24.13;;
22764;SDS011;11549;50.852;3.816;2022-09-12T04:38:45;36.25;;;26.00;;
22764;SDS011;11549;50.852;3.816;2022-09-12T04:41:15;30.83;;;24.13;;
22764;SDS011;11549;50.852;3.816;2022-09-12T04:43:45;31.77;;;23.95;;
22764;SDS011;11549;50.852;3.816;2022-09-12T04:46:15;32.85;;;23.95;;
22764;SDS011;11549;50.852;3.816;2022-09-12T04:48:46;35.97;;;24.88;;
22764;SDS011;11549;50.852;3.816;2022-09-12T04:51:22;30.95;;;23.73;;
22764;SDS011;11549;50.852;3.816;2022-09-12T04:53:55;40.17;;;25.63;;
22764;SDS011;11549;50.852;3.816;2022-09-12T04:56:26;30.33;;;22.92;;
22764;SDS011;11549;50.852;3.816;2022-09-12T04:58:55;30.98;;;23.45;;
22764;SDS011;11549;50.852;3.816;2022-09-12T05:01:25;35.35;;;24.77;;
22764;SDS011;11549;50.852;3.816;2022-09-12T05:03:56;30.35;;;24.08;;
22764;SDS011;11549;50.852;3.816;2022-09-12T05:06:25;35.60;;;25.77;;
22764;SDS011;11549;50.852;3.816;2022-09-12T05:08:57;32.50;;;25.45;;
22764;SDS011;11549;50.852;3.816;2022-09-12T05:11:27;37.38;;;25.08;;
22764;SDS011;11549;50.852;3.816;2022-09-12T05:14:19;33.55;;;24.63;;
22764;SDS011;11549;50.852;3.816;2022-09-12T05:16:48;33.42;;;25.10;;
22764;SDS011;11549;50.852;3.816;2022-09-12T05:19:16;36.08;;;26.55;;
22764;SDS011;11549;50.852;3.816;2022-09-12T05:21:45;33.35;;;25.33;;
22764;SDS011;11549;50.852;3.816;2022-09-12T05:24:15;34.42;;;26.10;;
22764;SDS011;11549;50.852;3.816;2022-09-12T05:26:43;35.08;;;26.08;;
22764;SDS011;11549;50.852;3.816;2022-09-12T05:29:11;33.97;;;25.45;;
22764;SDS011;11549;50.852;3.816;2022-09-12T05:31:40;34.42;;;27.23;;
22764;SDS011;11549;50.852;3.816;2022-09-12T05:34:08;34.15;;;25.92;;
22764;SDS011;11549;50.852;3.816;2022-09-12T05:36:38;37.80;;;26.02;;
22764;SDS011;11549;50.852;3.816;2022-09-12T05:39:06;35.90;;;25.73;;
22764;SDS011;11549;50.852;3.816;2022-09-12T05:41:36;32.58;;;24.75;;
22764;SDS011;11549;50.852;3.816;2022-09-12T05:44:05;33.78;;;24.65;;
22764;SDS011;11549;50.852;3.816;2022-09-12T05:46:38;32.72;;;24.17;;
22764;SDS011;11549;50.852;3.816;2022-09-12T05:49:10;31.15;;;23.40;;
22764;SDS011;11549;50.852;3.816;2022-09-12T05:51:42;27.92;;;22.13;;
22764;SDS011;11549;50.852;3.816;2022-09-12T05:54:13;25.90;;;20.23;;
22764;SDS011;11549;50.852;3.816;2022-09-12T05:56:44;26.38;;;20.70;;
22764;SDS011;11549;50.852;3.816;2022-09-12T05:59:14;26.52;;;20.38;;
22764;SDS011;11549;50.852;3.816;2022-09-12T06:01:43;22.20;;;18.65;;
22764;SDS011;11549;50.852;3.816;2022-09-12T06:04:12;22.52;;;17.20;;
22764;SDS011;11549;50.852;3.816;2022-09-12T06:06:41;24.02;;;15.77;;
22764;SDS011;11549;50.852;3.816;2022-09-12T06:09:11;19.40;;;15.00;;
22764;SDS011;11549;50.852;3.816;2022-09-12T06:11:41;17.95;;;14.25;;
22764;SDS011;11549;50.852;3.816;2022-09-12T06:14:13;21.20;;;13.63;;
22764;SDS011;11549;50.852;3.816;2022-09-12T06:16:49;17.70;;;13.43;;
22764;SDS011;11549;50.852;3.816;2022-09-12T06:19:18;21.70;;;14.23;;
22764;SDS011;11549;50.852;3.816;2022-09-12T06:21:51;16.95;;;12.98;;
22764;SDS011;11549;50.852;3.816;2022-09-12T06:24:20;21.27;;;12.90;;
22764;SDS011;11549;50.852;3.816;2022-09-12T06:26:50;19.55;;;13.15;;
22764;SDS011;11549;50.852;3.816;2022-09-12T06:29:20;14.63;;;11.80;;
22764;SDS011;11549;50.852;3.816;2022-09-12T06:31:49;15.52;;;12.98;;
22764;SDS011;11549;50.852;3.816;2022-09-12T06:34:17;16.83;;;12.70;;
22764;SDS011;11549;50.852;3.816;2022-09-12T06:36:47;15.40;;;12.60;;
22764;SDS011;11549;50.852;3.816;2022-09-12T06:39:16;12.63;;;10.75;;
22764;SDS011;11549;50.852;3.816;2022-09-12T06:41:45;13.55;;;11.18;;
22764;SDS011;11549;50.852;3.816;2022-09-12T06:44:15;13.82;;;11.75;;
22764;SDS011;11549;50.852;3.816;2022-09-12T06:46:47;14.18;;;11.52;;
22764;SDS011;11549;50.852;3.816;2022-09-12T06:49:16;14.90;;;11.60;;
22764;SDS011;11549;50.852;3.816;2022-09-12T06:51:44;12.32;;;10.98;;
22764;SDS011;11549;50.852;3.816;2022-09-12T06:54:13;14.23;;;10.95;;
22764;SDS011;11549;50.852;3.816;2022-09-12T06:56:43;14.35;;;11.18;;
22764;SDS011;11549;50.852;3.816;2022-09-12T06:59:11;12.75;;;10.50;;
22764;SDS011;11549;50.852;3.816;2022-09-12T07:01:40;14.07;;;11.00;;
22764;SDS011;11549;50.852;3.816;2022-09-12T07:04:10;13.20;;;10.38;;
22764;SDS011;11549;50.852;3.816;2022-09-12T07:06:39;11.68;;;10.25;;
22764;SDS011;11549;50.852;3.816;2022-09-12T07:09:10;13.40;;;10.20;;
22764;SDS011;11549;50.852;3.816;2022-09-12T07:11:42;11.50;;;9.73;;
22764;SDS011;11549;50.852;3.816;2022-09-12T07:14:12;13.18;;;10.73;;
22764;SDS011;11549;50.852;3.816;2022-09-12T07:16:41;12.93;;;9.90;;
22764;SDS011;11549;50.852;3.816;2022-09-12T07:19:11;11.35;;;9.95;;
22764;SDS011;11549;50.852;3.816;2022-09-12T07:21:40;11.15;;;9.88;;
22764;SDS011;11549;50.852;3.816;2022-09-12T07:24:09;11.85;;;9.90;;
22764;SDS011;11549;50.852;3.816;2022-09-12T07:26:38;10.63;;;9.50;;
22764;SDS011;11549;50.852;3.816;2022-09-12T07:32:01;9.50;;;8.38;;
22764;SDS011;11549;50.852;3.816;2022-09-12T07:34:33;11.57;;;9.05;;
22764;SDS011;11549;50.852;3.816;2022-09-12T07:37:02;9.80;;;8.80;;
22764;SDS011;11549;50.852;3.816;2022-09-12T07:39:31;10.07;;;8.82;;
22764;SDS011;11549;50.852;3.816;2022-09-12T07:42:00;11.18;;;8.93;;
22764;SDS011;11549;50.852;3.816;2022-09-12T07:44:28;11.02;;;8.60;;
22764;SDS011;11549;50.852;3.816;2022-09-12T07:46:57;11.15;;;9.50;;
22764;SDS011;11549;50.852;3.816;2022-09-12T07:49:28;11.40;;;8.65;;
22764;SDS011;11549;50.852;3.816;2022-09-12T07:51:58;12.02;;;9.63;;
22764;SDS011;11549;50.852;3.816;2022-09-12T07:54:26;13.60;;;9.18;;
22764;SDS011;11549;50.852;3.816;2022-09-12T07:56:54;10.85;;;8.95;;
22764;SDS011;11549;50.852;3.816;2022-09-12T07:59:23;9.70;;;8.13;;
22764;SDS011;11549;50.852;3.816;2022-09-12T08:02:11;11.07;;;9.02;;
22764;SDS011;11549;50.852;3.816;2022-09-12T08:11:17;12.60;;;8.45;;
22764;SDS011;11549;50.852;3.816;2022-09-12T08:13:47;12.80;;;9.00;;
22764;SDS011;11549;50.852;3.816;2022-09-12T08:16:21;11.20;;;7.65;;
22764;SDS011;11549;50.852;3.816;2022-09-12T08:18:51;14.38;;;9.02;;
22764;SDS011;11549;50.852;3.816;2022-09-12T08:21:20;14.90;;;9.15;;
22764;SDS011;11549;50.852;3.816;2022-09-12T08:23:50;12.82;;;9.05;;
22764;SDS011;11549;50.852;3.816;2022-09-12T08:26:21;10.93;;;8.70;;
22764;SDS011;11549;50.852;3.816;2022-09-12T08:28:50;15.38;;;9.23;;
22764;SDS011;11549;50.852;3.816;2022-09-12T08:31:19;12.18;;;8.18;;
22764;SDS011;11549;50.852;3.816;2022-09-12T08:33:48;13.15;;;8.95;;
22764;SDS011;11549;50.852;3.816;2022-09-12T08:36:18;14.23;;;9.35;;
22764;SDS011;11549;50.852;3.816;2022-09-12T08:38:48;14.55;;;9.05;;
22764;SDS011;11549;50.852;3.816;2022-09-12T08:41:27;16.73;;;9.82;;
22764;SDS011;11549;50.852;3.816;2022-09-12T08:43:59;14.00;;;9.25;;
22764;SDS011;11549;50.852;3.816;2022-09-12T08:46:47;14.88;;;7.72;;
22764;SDS011;11549;50.852;3.816;2022-09-12T08:49:25;16.55;;;9.00;;
22764;SDS011;11549;50.852;3.816;2022-09-12T08:51:57;10.23;;;7.28;;
22764;SDS011;11549;50.852;3.816;2022-09-12T08:54:29;12.95;;;8.73;;
22764;SDS011;11549;50.852;3.816;2022-09-12T08:57:02;14.32;;;9.00;;
22764;SDS011;11549;50.852;3.816;2022-09-12T08:59:33;14.52;;;8.23;;
22764;SDS011;11549;50.852;3.816;2022-09-12T09:02:08;13.70;;;7.95;;
22764;SDS011;11549;50.852;3.816;2022-09-12T09:05:06;13.95;;;8.57;;
22764;SDS011;11549;50.852;3.816;2022-09-12T09:07:59;11.68;;;8.75;;
22764;SDS011;11549;50.852;3.816;2022-09-12T09:10:55;11.10;;;7.47;;
22764;SDS011;11549;50.852;3.816;2022-09-12T09:13:35;15.40;;;8.35;;
22764;SDS011;11549;50.852;3.816;2022-09-12T09:16:31;13.77;;;8.25;;
22764;SDS011;11549;50.852;3.816;2022-09-12T09:19:02;13.00;;;7.90;;
22764;SDS011;11549;50.852;3.816;2022-09-12T09:21:37;12.98;;;7.75;;
22764;SDS011;11549;50.852;3.816;2022-09-12T09:24:10;14.27;;;8.80;;
22764;SDS011;11549;50.852;3.816;2022-09-12T09:26:44;12.35;;;7.68;;
22764;SDS011;11549;50.852;3.816;2022-09-12T09:29:19;11.57;;;7.30;;
22764;SDS011;11549;50.852;3.816;2022-09-12T09:31:50;9.57;;;7.18;;
22764;SDS011;11549;50.852;3.816;2022-09-12T09:34:21;9.20;;;6.28;;
22764;SDS011;11549;50.852;3.816;2022-09-12T09:36:54;9.77;;;5.85;;
22764;SDS011;11549;50.852;3.816;2022-09-12T09:39:33;9.65;;;5.93;;
22764;SDS011;11549;50.852;3.816;2022-09-12T09:42:18;8.73;;;5.45;;
22764;SDS011;11549;50.852;3.816;2022-09-12T09:44:55;9.13;;;4.95;;
22764;SDS011;11549;50.852;3.816;2022-09-12T09:49:55;10.25;;;6.57;;
22764;SDS011;11549;50.852;3.816;2022-09-12T09:52:25;8.05;;;4.95;;
22764;SDS011;11549;50.852;3.816;2022-09-12T09:54:57;6.10;;;4.57;;
22764;SDS011;11549;50.852;3.816;2022-09-12T09:57:39;7.72;;;4.20;;
22764;SDS011;11549;50.852;3.816;2022-09-12T10:05:57;5.95;;;4.10;;
22764;SDS011;11549;50.852;3.816;2022-09-12T10:08:27;6.07;;;4.40;;
22764;SDS011;11549;50.852;3.816;2022-09-12T10:10:58;6.65;;;4.32;;
22764;SDS011;11549;50.852;3.816;2022-09-12T10:13:33;7.53;;;3.83;;
22764;SDS011;11549;50.852;3.816;2022-09-12T10:16:17;6.78;;;3.92;;
22764;SDS011;11549;50.852;3.816;2022-09-12T10:18:47;6.75;;;4.57;;
22764;SDS011;11549;50.852;3.816;2022-09-12T10:21:23;6.85;;;3.45;;
22764;SDS011;11549;50.852;3.816;2022-09-12T10:24:02;5.88;;;4.20;;
22764;SDS011;11549;50.852;3.816;2022-09-12T10:26:34;5.90;;;4.20;;
22764;SDS011;11549;50.852;3.816;2022-09-12T10:29:12;7.90;;;4.50;;
22764;SDS011;11549;50.852;3.816;2022-09-12T10:31:49;5.60;;;3.87;;
22764;SDS011;11549;50.852;3.816;2022-09-12T10:34:21;5.13;;;3.60;;
22764;SDS011;11549;50.852;3.816;2022-09-12T10:39:25;6.85;;;3.78;;
22764;SDS011;11549;50.852;3.816;2022-09-12T10:41:53;4.65;;;3.33;;
22764;SDS011;11549;50.852;3.816;2022-09-12T10:44:23;6.57;;;3.75;;
22764;SDS011;11549;50.852;3.816;2022-09-12T10:46:54;7.18;;;4.72;;
22764;SDS011;11549;50.852;3.816;2022-09-12T10:49:25;5.45;;;3.22;;
22764;SDS011;11549;50.852;3.816;2022-09-12T10:51:55;5.28;;;3.80;;
22764;SDS011;11549;50.852;3.816;2022-09-12T10:54:26;5.88;;;3.08;;
22764;SDS011;11549;50.852;3.816;2022-09-12T10:56:59;5.43;;;3.92;;
22764;SDS011;11549;50.852;3.816;2022-09-12T11:02:40;5.68;;;3.13;;
22764;SDS011;11549;50.852;3.816;2022-09-12T11:05:21;5.80;;;3.47;;
22764;SDS011;11549;50.852;3.816;2022-09-12T11:08:10;5.15;;;3.38;;
22764;SDS011;11549;50.852;3.816;2022-09-12T11:10:53;5.97;;;2.80;;
22764;SDS011;11549;50.852;3.816;2022-09-12T11:13:34;6.78;;;3.30;;
22764;SDS011;11549;50.852;3.816;2022-09-12T11:16:19;5.78;;;2.88;;
22764;SDS011;11549;50.852;3.816;2022-09-12T11:19:05;5.22;;;3.28;;
22764;SDS011;11549;50.852;3.816;2022-09-12T11:21:51;5.20;;;3.17;;
22764;SDS011;11549;50.852;3.816;2022-09-12T11:24:40;4.82;;;3.25;;
22764;SDS011;11549;50.852;3.816;2022-09-12T11:27:30;4.80;;;3.40;;
22764;SDS011;11549;50.852;3.816;2022-09-12T11:30:07;5.60;;;3.15;;
22764;SDS011;11549;50.852;3.816;2022-09-12T11:35:36;5.90;;;1.80;;
22764;SDS011;11549;50.852;3.816;2022-09-12T11:38:17;3.50;;;2.20;;
22764;SDS011;11549;50.852;3.816;2022-09-12T11:40:59;3.30;;;1.85;;
22764;SDS011;11549;50.852;3.816;2022-09-12T11:43:34;5.20;;;2.20;;
22764;SDS011;11549;50.852;3.816;2022-09-12T11:46:09;4.72;;;1.98;;
22764;SDS011;11549;50.852;3.816;2022-09-12T11:48:44;2.97;;;1.73;;
22764;SDS011;11549;50.852;3.816;2022-09-12T11:51:20;4.43;;;1.75;;
22764;SDS011;11549;50.852;3.816;2022-09-12T11:53:57;3.40;;;1.77;;
22764;SDS011;11549;50.852;3.816;2022-09-12T11:56:32;4.45;;;1.67;;
22764;SDS011;11549;50.852;3.816;2022-09-12T11:59:11;4.30;;;1.90;;
22764;SDS011;11549;50.852;3.816;2022-09-12T12:01:47;3.70;;;1.90;;
22764;SDS011;11549;50.852;3.816;2022-09-12T12:06:55;4.22;;;1.55;;
22764;SDS011;11549;50.852;3.816;2022-09-12T12:09:29;2.55;;;1.60;;
22764;SDS011;11549;50.852;3.816;2022-09-12T12:11:59;2.78;;;1.67;;
22764;SDS011;11549;50.852;3.816;2022-09-12T12:14:34;2.25;;;1.60;;
22764;SDS011;11549;50.852;3.816;2022-09-12T12:17:14;3.22;;;1.52;;
22764;SDS011;11549;50.852;3.816;2022-09-12T12:19:43;3.55;;;1.63;;
22764;SDS011;11549;50.852;3.816;2022-09-12T12:22:15;2.17;;;1.30;;
22764;SDS011;11549;50.852;3.816;2022-09-12T12:24:53;3.17;;;1.80;;
22764;SDS011;11549;50.852;3.816;2022-09-12T12:36:39;5.25;;;1.52;;
22764;SDS011;11549;50.852;3.816;2022-09-12T12:45:56;3.92;;;1.50;;
22764;SDS011;11549;50.852;3.816;2022-09-12T12:48:29;4.38;;;1.52;;
22764;SDS011;11549;50.852;3.816;2022-09-12T12:51:19;3.03;;;1.60;;
22764;SDS011;11549;50.852;3.816;2022-09-12T12:53:58;2.63;;;1.13;;
22764;SDS011;11549;50.852;3.816;2022-09-12T12:56:34;3.78;;;1.38;;
22764;SDS011;11549;50.852;3.816;2022-09-12T12:59:17;2.35;;;1.23;;
22764;SDS011;11549;50.852;3.816;2022-09-12T13:01:50;3.55;;;1.25;;
22764;SDS011;11549;50.852;3.816;2022-09-12T13:04:23;2.15;;;1.50;;
22764;SDS011;11549;50.852;3.816;2022-09-12T13:06:54;5.32;;;1.60;;
22764;SDS011;11549;50.852;3.816;2022-09-12T13:09:31;2.70;;;1.40;;
22764;SDS011;11549;50.852;3.816;2022-09-12T13:12:03;2.88;;;1.33;;
22764;SDS011;11549;50.852;3.816;2022-09-12T13:14:36;4.57;;;1.60;;
22764;SDS011;11549;50.852;3.816;2022-09-12T13:17:20;3.85;;;1.60;;
22764;SDS011;11549;50.852;3.816;2022-09-12T13:19:53;2.88;;;1.50;;
22764;SDS011;11549;50.852;3.816;2022-09-12T13:22:50;2.17;;;1.50;;
22764;SDS011;11549;50.852;3.816;2022-09-12T13:25:21;2.45;;;1.45;;
22764;SDS011;11549;50.852;3.816;2022-09-12T13:30:44;3.17;;;1.75;;
22764;SDS011;11549;50.852;3.816;2022-09-12T13:33:18;2.92;;;1.65;;
22764;SDS011;11549;50.852;3.816;2022-09-12T13:36:00;4.15;;;1.63;;
22764;SDS011;11549;50.852;3.816;2022-09-12T13:38:52;3.55;;;1.50;;
22764;SDS011;11549;50.852;3.816;2022-09-12T13:41:36;4.70;;;1.70;;
22764;SDS011;11549;50.852;3.816;2022-09-12T13:44:20;3.45;;;1.60;;
22764;SDS011;11549;50.852;3.816;2022-09-12T13:46:50;2.83;;;1.53;;
22764;SDS011;11549;50.852;3.816;2022-09-12T13:49:21;2.65;;;1.60;;
22764;SDS011;11549;50.852;3.816;2022-09-12T13:51:57;2.40;;;1.25;;
22764;SDS011;11549;50.852;3.816;2022-09-12T13:54:26;3.45;;;1.40;;
22764;SDS011;11549;50.852;3.816;2022-09-12T13:56:56;2.35;;;1.30;;
22764;SDS011;11549;50.852;3.816;2022-09-12T13:59:25;2.05;;;1.23;;
22764;SDS011;11549;50.852;3.816;2022-09-12T14:01:53;3.55;;;1.30;;
22764;SDS011;11549;50.852;3.816;2022-09-12T14:04:23;2.58;;;1.45;;
22764;SDS011;11549;50.852;3.816;2022-09-12T14:07:11;5.70;;;1.77;;
22764;SDS011;11549;50.852;3.816;2022-09-12T14:09:43;2.45;;;1.38;;
22764;SDS011;11549;50.852;3.816;2022-09-12T14:12:22;4.18;;;1.40;;
22764;SDS011;11549;50.852;3.816;2022-09-12T14:14:54;1.40;;;1.10;;
22764;SDS011;11549;50.852;3.816;2022-09-12T14:17:24;3.80;;;1.40;;
22764;SDS011;11549;50.852;3.816;2022-09-12T14:19:58;2.47;;;1.30;;
22764;SDS011;11549;50.852;3.816;2022-09-12T14:22:28;2.78;;;1.15;;
22764;SDS011;11549;50.852;3.816;2022-09-12T14:24:57;2.05;;;1.20;;
22764;SDS011;11549;50.852;3.816;2022-09-12T14:27:26;3.45;;;1.50;;
22764;SDS011;11549;50.852;3.816;2022-09-12T14:29:59;2.45;;;1.30;;
22764;SDS011;11549;50.852;3.816;2022-09-12T14:32:32;2.13;;;1.30;;
22764;SDS011;11549;50.852;3.816;2022-09-12T14:35:16;2.50;;;1.30;;
22764;SDS011;11549;50.852;3.816;2022-09-12T14:37:47;3.20;;;1.50;;
22764;SDS011;11549;50.852;3.816;2022-09-12T14:40:17;3.45;;;1.23;;
22764;SDS011;11549;50.852;3.816;2022-09-12T14:42:47;3.40;;;1.42;;
22764;SDS011;11549;50.852;3.816;2022-09-12T14:45:26;3.17;;;1.27;;
22764;SDS011;11549;50.852;3.816;2022-09-12T14:47:57;3.78;;;1.27;;
22764;SDS011;11549;50.852;3.816;2022-09-12T14:50:28;3.85;;;1.30;;
22764;SDS011;11549;50.852;3.816;2022-09-12T14:53:02;2.92;;;1.50;;
22764;SDS011;11549;50.852;3.816;2022-09-12T14:55:31;2.58;;;1.50;;
22764;SDS011;11549;50.852;3.816;2022-09-12T15:00:52;2.45;;;1.30;;
22764;SDS011;11549;50.852;3.816;2022-09-12T15:03:23;3.00;;;1.40;;
22764;SDS011;11549;50.852;3.816;2022-09-12T15:05:55;2.55;;;1.20;;
22764;SDS011;11549;50.852;3.816;2022-09-12T15:08:28;2.33;;;1.33;;
22764;SDS011;11549;50.852;3.816;2022-09-12T15:11:22;4.25;;;1.40;;
22764;SDS011;11549;50.852;3.816;2022-09-12T15:13:50;1.83;;;1.17;;
22764;SDS011;11549;50.852;3.816;2022-09-12T15:16:18;3.65;;;1.30;;
22764;SDS011;11549;50.852;3.816;2022-09-12T15:18:47;2.65;;;1.13;;
22764;SDS011;11549;50.852;3.816;2022-09-12T15:21:17;2.03;;;1.20;;
22764;SDS011;11549;50.852;3.816;2022-09-12T15:23:46;4.65;;;1.10;;
22764;SDS011;11549;50.852;3.816;2022-09-12T15:26:17;2.72;;;1.30;;
22764;SDS011;11549;50.852;3.816;2022-09-12T15:28:47;2.10;;;1.30;;
22764;SDS011;11549;50.852;3.816;2022-09-12T15:31:18;1.73;;;1.23;;
22764;SDS011;11549;50.852;3.816;2022-09-12T15:33:51;3.63;;;1.40;;
22764;SDS011;11549;50.852;3.816;2022-09-12T15:36:21;3.20;;;1.38;;
22764;SDS011;11549;50.852;3.816;2022-09-12T15:38:50;2.83;;;1.38;;
22764;SDS011;11549;50.852;3.816;2022-09-12T15:41:20;3.38;;;1.60;;
22764;SDS011;11549;50.852;3.816;2022-09-12T15:43:49;4.50;;;1.58;;
22764;SDS011;11549;50.852;3.816;2022-09-12T15:46:18;3.55;;;1.52;;
22764;SDS011;11549;50.852;3.816;2022-09-12T15:48:47;2.65;;;1.27;;
22764;SDS011;11549;50.852;3.816;2022-09-12T15:51:16;2.70;;;1.73;;
22764;SDS011;11549;50.852;3.816;2022-09-12T15:53:48;1.83;;;1.20;;
22764;SDS011;11549;50.852;3.816;2022-09-12T15:56:19;3.75;;;1.20;;
22764;SDS011;11549;50.852;3.816;2022-09-12T15:58:48;2.67;;;1.40;;
22764;SDS011;11549;50.852;3.816;2022-09-12T16:01:25;3.53;;;1.40;;
22764;SDS011;11549;50.852;3.816;2022-09-12T16:03:54;6.53;;;1.58;;